Time;durP1;ratioP1;P1;durP2;ratioP2;P2;SDS_P1;SDS_P2;PMS_P1;PMS_P2;Temp;Humidity;BMP_temperature;BMP_pressure;BME280_temperature;BME280_humidity;BME280_pressure;Samples;Min_cycle;Max_cycle;Signal;HPM_P1;HPM_P2
2021/09/06 00:01:30;;;;;;;8.20;6.90;;;11.50;99.90;;;;;;5095590;28;20032;-67
2021/09/06 00:03:55;;;;;;;9.25;6.85;;;11.40;99.90;;;;;;5099334;28;20047;-67
2021/09/06 00:06:21;;;;;;;10.68;7.55;;;11.40;99.90;;;;;;5100310;27;20051;-67
2021/09/06 00:08:46;;;;;;;6.85;5.18;;;11.40;99.90;;;;;;5095472;27;20040;-67
2021/09/06 00:11:12;;;;;;;7.45;4.93;;;11.30;99.90;;;;;;5097196;27;20044;-67
2021/09/06 00:13:39;;;;;;;6.18;5.40;;;11.10;99.90;;;;;;5097021;28;20042;-66
2021/09/06 00:16:06;;;;;;;9.02;5.38;;;11.00;99.90;;;;;;5097444;27;20043;-67
2021/09/06 00:18:32;;;;;;;10.32;5.20;;;10.90;99.90;;;;;;5102334;27;20032;-67
2021/09/06 00:21:01;;;;;;;9.13;6.60;;;10.90;99.90;;;;;;5098072;28;20040;-67
2021/09/06 00:23:27;;;;;;;4.72;4.00;;;10.90;99.90;;;;;;5097320;28;20054;-67
2021/09/06 00:25:53;;;;;;;7.88;5.72;;;10.80;99.90;;;;;;5095596;28;20100;-67
2021/09/06 00:28:19;;;;;;;8.73;7.10;;;10.80;99.90;;;;;;5096997;28;20478;-67
2021/09/06 00:30:44;;;;;;;10.20;8.20;;;10.90;99.90;;;;;;5098633;28;20189;-67
2021/09/06 00:33:10;;;;;;;12.10;8.85;;;10.90;99.90;;;;;;5097792;28;20051;-67
2021/09/06 00:35:36;;;;;;;11.65;7.35;;;10.90;99.90;;;;;;5099548;28;20128;-67
2021/09/06 00:38:02;;;;;;;10.50;8.02;;;10.80;99.90;;;;;;5097769;28;20394;-67
2021/09/06 00:40:28;;;;;;;12.45;6.40;;;10.80;99.90;;;;;;5127050;27;20036;-68
2021/09/06 00:42:54;;;;;;;9.55;7.35;;;10.80;99.90;;;;;;5099338;28;20456;-67
2021/09/06 00:45:20;;;;;;;7.68;5.57;;;10.80;99.90;;;;;;5099099;28;20032;-67
2021/09/06 00:47:46;;;;;;;6.50;5.70;;;10.80;99.90;;;;;;5100413;27;20056;-67
2021/09/06 00:50:14;;;;;;;4.65;4.15;;;10.70;99.90;;;;;;5095970;27;20039;-67
2021/09/06 00:52:42;;;;;;;5.00;4.50;;;10.70;99.90;;;;;;5096247;28;20047;-67
2021/09/06 00:55:09;;;;;;;5.38;4.75;;;10.70;99.90;;;;;;5096824;28;20609;-67
2021/09/06 00:57:35;;;;;;;4.45;4.05;;;10.60;99.90;;;;;;5098050;27;20047;-67
2021/09/06 01:00:02;;;;;;;6.75;5.93;;;10.60;99.90;;;;;;5099694;27;20036;-67
2021/09/06 01:02:28;;;;;;;8.57;7.45;;;10.50;99.90;;;;;;5098134;28;20032;-67
2021/09/06 01:04:54;;;;;;;9.10;7.82;;;10.40;99.90;;;;;;5094277;28;20052;-67
2021/09/06 01:07:19;;;;;;;8.57;7.22;;;10.40;99.90;;;;;;5097396;27;20032;-67
2021/09/06 01:09:45;;;;;;;7.03;5.88;;;10.50;99.90;;;;;;5098988;28;21617;-67
2021/09/06 01:12:11;;;;;;;8.02;5.45;;;10.40;99.90;;;;;;5095052;28;20043;-67
2021/09/06 01:14:37;;;;;;;8.55;6.20;;;10.50;99.90;;;;;;5080896;28;20032;-67
2021/09/06 01:17:03;;;;;;;9.30;6.05;;;10.50;99.90;;;;;;5094211;28;20032;-67
2021/09/06 01:19:29;;;;;;;9.00;6.80;;;10.50;99.90;;;;;;5097539;28;20070;-67
2021/09/06 01:21:55;;;;;;;10.98;6.32;;;10.50;99.90;;;;;;5097293;28;20138;-67
2021/09/06 01:24:20;;;;;;;8.07;6.18;;;10.40;99.90;;;;;;5094571;28;20084;-67
2021/09/06 01:26:47;;;;;;;8.25;6.35;;;10.40;99.90;;;;;;5095443;28;20028;-67
2021/09/06 01:29:13;;;;;;;6.90;5.18;;;10.40;99.90;;;;;;5094252;28;20047;-67
2021/09/06 01:31:39;;;;;;;5.28;4.40;;;10.40;99.90;;;;;;5094901;28;20502;-67
2021/09/06 01:34:07;;;;;;;6.15;5.25;;;10.40;99.90;;;;;;5099436;28;20053;-67
2021/09/06 01:36:32;;;;;;;6.75;5.63;;;10.30;99.90;;;;;;5097350;28;20044;-67
2021/09/06 01:38:58;;;;;;;8.73;5.95;;;10.30;99.90;;;;;;5094907;28;20395;-67
2021/09/06 01:41:23;;;;;;;8.25;5.75;;;10.20;99.90;;;;;;5095670;28;20063;-67
2021/09/06 01:43:49;;;;;;;7.72;5.25;;;10.10;99.90;;;;;;5095951;28;20050;-67
2021/09/06 01:46:14;;;;;;;10.27;6.93;;;10.00;99.90;;;;;;5125262;27;20394;-67
2021/09/06 01:48:40;;;;;;;8.07;5.80;;;9.90;99.90;;;;;;5094461;28;20937;-67
2021/09/06 01:51:07;;;;;;;11.68;7.68;;;9.90;99.90;;;;;;5098043;28;20048;-67
2021/09/06 01:53:32;;;;;;;12.32;7.93;;;9.90;99.90;;;;;;5097584;28;20050;-67
2021/09/06 01:55:58;;;;;;;11.05;9.52;;;10.00;99.90;;;;;;5095612;28;20489;-67
2021/09/06 01:58:23;;;;;;;12.60;9.20;;;10.10;99.90;;;;;;5128242;27;20084;-67
2021/09/06 02:00:49;;;;;;;5.90;5.22;;;10.20;99.90;;;;;;5094925;28;20040;-67
2021/09/06 02:03:15;;;;;;;7.53;6.32;;;10.20;99.90;;;;;;5096817;28;20055;-67
2021/09/06 02:05:40;;;;;;;9.63;6.53;;;10.00;99.90;;;;;;5093426;27;20039;-67
2021/09/06 02:08:06;;;;;;;7.15;6.35;;;9.90;99.90;;;;;;5098663;28;20053;-67
2021/09/06 02:10:32;;;;;;;8.02;6.35;;;9.90;99.90;;;;;;5095778;28;20071;-67
2021/09/06 02:12:57;;;;;;;5.82;5.30;;;9.80;99.90;;;;;;5095657;28;20035;-67
2021/09/06 02:15:23;;;;;;;6.50;5.90;;;9.80;99.90;;;;;;5096118;28;20077;-67
2021/09/06 02:17:49;;;;;;;5.97;5.38;;;9.80;99.90;;;;;;5093638;28;20039;-67
2021/09/06 02:20:14;;;;;;;7.50;4.70;;;9.70;99.90;;;;;;5094741;28;20095;-67
2021/09/06 02:22:40;;;;;;;6.47;5.68;;;9.70;99.90;;;;;;5097706;28;20055;-67
2021/09/06 02:25:07;;;;;;;6.45;5.85;;;9.70;99.90;;;;;;5095296;28;20038;-67
2021/09/06 02:27:32;;;;;;;6.53;5.15;;;9.60;99.90;;;;;;5097029;28;20061;-67
2021/09/06 02:29:58;;;;;;;6.82;5.45;;;9.70;99.90;;;;;;5098299;28;20035;-67
2021/09/06 02:32:29;;;;;;;5.75;5.28;;;9.60;99.90;;;;;;5099962;28;20100;-67
2021/09/06 02:34:54;;;;;;;9.40;6.05;;;9.60;99.90;;;;;;5100151;28;20040;-67
2021/09/06 02:37:20;;;;;;;5.55;5.03;;;9.50;99.90;;;;;;5105371;28;20481;-67
2021/09/06 02:39:45;;;;;;;10.40;5.38;;;9.50;99.90;;;;;;5097742;28;20039;-67
2021/09/06 02:42:11;;;;;;;13.73;6.68;;;9.40;99.90;;;;;;5100895;28;20408;-67
2021/09/06 02:44:36;;;;;;;8.93;6.97;;;9.30;99.90;;;;;;5100238;28;20036;-67
2021/09/06 02:47:02;;;;;;;10.65;5.53;;;9.30;99.90;;;;;;5101681;28;20474;-67
2021/09/06 02:49:28;;;;;;;108.35;5.22;;;9.30;99.90;;;;;;5104862;28;20147;-67
2021/09/06 02:51:53;;;;;;;11.77;3.90;;;9.30;99.90;;;;;;5100496;28;20127;-67
2021/09/06 02:54:19;;;;;;;24.80;2.90;;;9.20;99.90;;;;;;5102816;28;20486;-67
2021/09/06 02:56:44;;;;;;;2.38;1.73;;;9.20;99.90;;;;;;5131605;27;20473;-67
2021/09/06 02:59:10;;;;;;;2.85;2.65;;;9.20;99.90;;;;;;5104052;28;20051;-67
2021/09/06 03:01:36;;;;;;;3.30;2.78;;;9.20;99.90;;;;;;5101246;28;20039;-67
2021/09/06 03:04:02;;;;;;;3.58;3.28;;;9.30;99.90;;;;;;5107231;28;20049;-67
2021/09/06 03:06:27;;;;;;;4.60;4.20;;;9.30;99.90;;;;;;5107845;27;20082;-67
2021/09/06 03:08:53;;;;;;;4.10;2.70;;;9.30;99.90;;;;;;5107204;28;20098;-67
2021/09/06 03:11:23;;;;;;;9.38;2.63;;;9.30;99.90;;;;;;5105103;28;20040;-67
2021/09/06 03:13:53;;;;;;;3.15;2.95;;;9.30;99.90;;;;;;5105849;28;20043;-67
2021/09/06 03:16:19;;;;;;;3.28;3.08;;;9.30;99.90;;;;;;5101575;28;20038;-67
2021/09/06 03:18:44;;;;;;;5.10;4.05;;;9.20;99.90;;;;;;5101252;28;20582;-67
2021/09/06 03:21:10;;;;;;;3.15;2.63;;;9.20;99.90;;;;;;5104668;28;20124;-67
2021/09/06 03:23:35;;;;;;;4.93;2.55;;;9.20;99.90;;;;;;5101590;28;20065;-67
2021/09/06 03:26:01;;;;;;;5.78;3.25;;;9.20;99.90;;;;;;5103432;28;20989;-67
2021/09/06 03:28:26;;;;;;;5.80;4.55;;;9.20;99.90;;;;;;5104287;28;20429;-67
2021/09/06 03:30:52;;;;;;;10.02;6.97;;;9.20;99.90;;;;;;5098419;28;20035;-67
2021/09/06 03:33:17;;;;;;;10.43;8.30;;;9.10;99.90;;;;;;5099032;27;20063;-67
2021/09/06 03:35:43;;;;;;;8.73;7.45;;;9.10;99.90;;;;;;5098723;28;20027;-67
2021/09/06 03:38:12;;;;;;;11.88;7.13;;;9.00;99.90;;;;;;5127752;27;20046;-67
2021/09/06 03:40:38;;;;;;;6.05;4.40;;;9.00;99.90;;;;;;5099393;28;20039;-67
2021/09/06 03:43:04;;;;;;;5.10;4.60;;;9.00;99.90;;;;;;5094397;28;20387;-67
2021/09/06 03:45:30;;;;;;;6.25;5.43;;;9.00;99.90;;;;;;5101363;28;20119;-67
2021/09/06 03:47:55;;;;;;;5.63;5.03;;;9.00;99.90;;;;;;5098026;27;20059;-67
2021/09/06 03:50:21;;;;;;;5.45;4.95;;;9.00;99.90;;;;;;5101719;28;20551;-67
2021/09/06 03:52:47;;;;;;;3.00;2.70;;;9.00;99.90;;;;;;5099726;28;20032;-67
2021/09/06 03:55:13;;;;;;;9.05;4.50;;;9.00;99.90;;;;;;5097667;28;20130;-67
2021/09/06 03:57:38;;;;;;;3.83;3.47;;;8.90;99.90;;;;;;5097509;28;20039;-67
2021/09/06 04:00:05;;;;;;;12.23;7.15;;;9.00;99.90;;;;;;5099945;28;20051;-67
2021/09/06 04:02:30;;;;;;;7.53;6.68;;;8.90;99.90;;;;;;5096048;28;20035;-67
2021/09/06 04:04:58;;;;;;;7.75;6.35;;;9.00;99.90;;;;;;5097889;28;20398;-67
2021/09/06 04:07:24;;;;;;;8.88;7.28;;;8.90;99.90;;;;;;5096932;28;20044;-67
2021/09/06 04:09:49;;;;;;;8.82;5.80;;;9.00;99.90;;;;;;5095726;28;20036;-67
2021/09/06 04:12:15;;;;;;;7.18;6.45;;;9.00;99.90;;;;;;5097320;28;21119;-67
2021/09/06 04:14:41;;;;;;;6.93;6.18;;;9.00;99.90;;;;;;5098149;27;20065;-67
2021/09/06 04:17:07;;;;;;;6.53;4.78;;;9.00;99.90;;;;;;5095447;28;20504;-67
2021/09/06 04:19:32;;;;;;;7.63;6.93;;;9.00;99.90;;;;;;5101254;28;20048;-67
2021/09/06 04:22:02;;;;;;;7.80;6.88;;;9.00;99.90;;;;;;5097974;28;20061;-67
2021/09/06 04:24:28;;;;;;;8.80;6.55;;;9.00;99.90;;;;;;5098768;28;20032;-67
2021/09/06 04:26:54;;;;;;;9.23;6.45;;;8.90;99.90;;;;;;5096290;28;20074;-67
2021/09/06 04:29:21;;;;;;;10.25;7.38;;;8.90;99.90;;;;;;5098417;27;20036;-67
2021/09/06 04:31:46;;;;;;;7.32;6.35;;;8.90;99.90;;;;;;5100200;28;20035;-67
2021/09/06 04:34:12;;;;;;;7.55;5.43;;;8.90;99.90;;;;;;5101480;28;20039;-67
2021/09/06 04:36:38;;;;;;;4.75;4.30;;;9.00;99.90;;;;;;5102399;28;20096;-67
2021/09/06 04:39:04;;;;;;;6.93;5.57;;;9.00;99.90;;;;;;5098405;28;20575;-67
2021/09/06 04:41:30;;;;;;;10.00;6.00;;;8.90;99.90;;;;;;5096884;28;20155;-67
2021/09/06 04:43:56;;;;;;;13.30;6.38;;;8.90;99.90;;;;;;5099435;27;20055;-67
2021/09/06 04:46:21;;;;;;;7.95;6.32;;;8.80;99.90;;;;;;5125564;27;20047;-67
2021/09/06 04:48:47;;;;;;;8.80;6.50;;;8.90;99.90;;;;;;5112823;27;20049;-67
2021/09/06 04:51:13;;;;;;;7.25;6.32;;;8.80;99.90;;;;;;5096098;28;20051;-67
2021/09/06 04:53:40;;;;;;;6.70;5.47;;;8.80;99.90;;;;;;5097666;28;20040;-67
2021/09/06 04:56:06;;;;;;;4.75;3.80;;;8.90;99.90;;;;;;5096949;28;20039;-67
2021/09/06 04:58:32;;;;;;;4.57;4.20;;;8.80;99.90;;;;;;5095904;28;20539;-67
2021/09/06 05:00:57;;;;;;;5.03;4.63;;;8.80;99.90;;;;;;5095683;28;20035;-67
2021/09/06 05:03:23;;;;;;;6.07;5.03;;;8.80;99.90;;;;;;5097103;28;20138;-67
2021/09/06 05:05:49;;;;;;;7.32;4.38;;;8.90;99.90;;;;;;5096883;28;20044;-67
2021/09/06 05:08:14;;;;;;;7.68;6.97;;;8.90;99.90;;;;;;5093857;28;20451;-67
2021/09/06 05:10:40;;;;;;;9.40;7.55;;;8.90;99.90;;;;;;5092078;28;20501;-67
2021/09/06 05:13:06;;;;;;;9.05;7.28;;;9.00;99.90;;;;;;5096615;28;20474;-67
2021/09/06 05:15:32;;;;;;;7.40;6.70;;;9.00;99.90;;;;;;5100019;27;20170;-67
2021/09/06 05:17:58;;;;;;;7.90;7.10;;;9.00;99.90;;;;;;5098259;28;20166;-67
2021/09/06 05:20:24;;;;;;;7.40;6.70;;;9.10;99.90;;;;;;5098128;28;20055;-67
2021/09/06 05:22:49;;;;;;;6.85;6.15;;;9.00;99.90;;;;;;5097753;28;20069;-67
2021/09/06 05:25:15;;;;;;;11.70;5.30;;;9.10;99.90;;;;;;5096493;28;20743;-67
2021/09/06 05:27:41;;;;;;;6.25;5.63;;;9.40;99.90;;;;;;5126368;27;20046;-67
2021/09/06 05:30:07;;;;;;;5.68;5.13;;;9.80;99.90;;;;;;5129290;27;20044;-67
2021/09/06 05:32:33;;;;;;;5.07;4.55;;;10.40;99.90;;;;;;5101663;27;20064;-67
2021/09/06 05:34:58;;;;;;;6.53;4.60;;;11.10;99.90;;;;;;5095846;28;20074;-67
2021/09/06 05:37:24;;;;;;;3.55;3.10;;;11.60;99.90;;;;;;5096490;28;20043;-67
2021/09/06 05:39:49;;;;;;;3.80;3.05;;;11.60;99.90;;;;;;5127893;27;20043;-67
2021/09/06 05:42:15;;;;;;;3.47;3.17;;;11.90;99.90;;;;;;5095227;28;20043;-67
2021/09/06 05:44:41;;;;;;;3.40;3.10;;;12.20;99.90;;;;;;5096973;28;20040;-67
2021/09/06 05:47:07;;;;;;;8.82;2.88;;;12.60;99.90;;;;;;5098662;28;20035;-67
2021/09/06 05:49:33;;;;;;;15.10;3.90;;;13.00;99.90;;;;;;5096052;28;20436;-67
2021/09/06 05:51:59;;;;;;;12.02;3.83;;;13.50;99.90;;;;;;5096870;28;20024;-67
2021/09/06 05:54:25;;;;;;;3.58;3.15;;;13.70;99.90;;;;;;5094725;28;20085;-67
2021/09/06 05:56:50;;;;;;;4.07;3.33;;;13.90;99.90;;;;;;5099441;28;20034;-67
2021/09/06 05:59:16;;;;;;;3.40;3.10;;;14.20;99.90;;;;;;5097529;28;20043;-67
2021/09/06 06:01:41;;;;;;;3.65;3.35;;;14.30;99.90;;;;;;5093610;28;20062;-67
2021/09/06 06:04:07;;;;;;;2.85;2.65;;;14.70;99.90;;;;;;5093232;28;20036;-67
2021/09/06 06:06:33;;;;;;;3.25;2.97;;;15.40;99.90;;;;;;5095213;28;20040;-67
2021/09/06 06:08:58;;;;;;;3.10;2.90;;;16.10;99.90;;;;;;5093793;28;20138;-67
2021/09/06 06:11:24;;;;;;;7.75;6.07;;;16.40;99.90;;;;;;5095299;28;20457;-67
2021/09/06 06:13:49;;;;;;;7.05;5.75;;;16.70;99.90;;;;;;5092069;28;20096;-67
2021/09/06 06:16:15;;;;;;;4.55;4.05;;;17.30;99.90;;;;;;5094446;28;20040;-67
2021/09/06 06:18:41;;;;;;;6.25;5.60;;;18.10;99.90;;;;;;5075344;28;20153;-67
2021/09/06 06:21:06;;;;;;;9.10;5.80;;;18.90;99.90;;;;;;5095660;28;20133;-69
2021/09/06 06:23:32;;;;;;;6.53;5.93;;;19.50;99.90;;;;;;5091159;28;20047;-67
2021/09/06 06:25:58;;;;;;;7.20;6.13;;;20.20;99.90;;;;;;5094796;28;20615;-67
2021/09/06 06:28:23;;;;;;;6.53;5.40;;;21.10;99.90;;;;;;5098834;28;20050;-67
2021/09/06 06:30:49;;;;;;;6.47;5.03;;;21.50;99.90;;;;;;5093472;27;20032;-67
2021/09/06 06:33:14;;;;;;;7.85;5.47;;;22.10;99.90;;;;;;5107612;28;20469;-67
2021/09/06 06:35:40;;;;;;;6.05;5.50;;;22.90;99.90;;;;;;5093997;28;20035;-67
2021/09/06 06:38:06;;;;;;;5.55;5.05;;;23.10;97.40;;;;;;5090924;28;20040;-67
2021/09/06 06:40:32;;;;;;;9.48;6.90;;;23.50;97.10;;;;;;5095314;28;20042;-67
2021/09/06 06:42:58;;;;;;;8.80;5.90;;;23.50;95.40;;;;;;5088819;28;20040;-67
2021/09/06 06:45:24;;;;;;;8.80;7.55;;;23.70;95.70;;;;;;5093377;28;20032;-67
2021/09/06 06:47:50;;;;;;;6.90;5.95;;;24.10;94.50;;;;;;5095847;28;20406;-67
2021/09/06 06:50:15;;;;;;;9.65;8.63;;;24.40;93.20;;;;;;5083679;28;20036;-67
2021/09/06 06:52:41;;;;;;;10.18;9.10;;;24.40;91.80;;;;;;5091394;28;20043;-67
2021/09/06 06:55:07;;;;;;;9.82;8.93;;;24.40;90.10;;;;;;5092752;28;20039;-67
2021/09/06 06:57:33;;;;;;;11.65;9.68;;;24.40;90.60;;;;;;5090773;28;20076;-67
2021/09/06 06:59:58;;;;;;;10.32;8.07;;;24.60;92.60;;;;;;5092650;28;20072;-67
2021/09/06 07:02:24;;;;;;;11.70;10.55;;;23.90;93.40;;;;;;5089946;28;20036;-67
2021/09/06 07:04:53;;;;;;;15.45;11.57;;;23.20;95.40;;;;;;5092456;28;20504;-67
2021/09/06 07:07:19;;;;;;;11.98;10.63;;;22.50;98.00;;;;;;5096683;28;20482;-67
2021/09/06 07:09:44;;;;;;;15.65;11.90;;;21.50;99.90;;;;;;5094120;28;20046;-67
2021/09/06 07:12:10;;;;;;;15.57;11.52;;;20.70;99.90;;;;;;5093377;28;20039;-67
2021/09/06 07:14:35;;;;;;;15.85;11.48;;;20.30;99.90;;;;;;5092208;28;20028;-67
2021/09/06 07:17:01;;;;;;;14.82;12.60;;;19.90;99.90;;;;;;5090872;28;20036;-67
2021/09/06 07:19:26;;;;;;;15.93;12.48;;;19.70;99.90;;;;;;5091602;28;20040;-66
2021/09/06 07:21:52;;;;;;;15.02;12.60;;;19.50;99.90;;;;;;5103759;28;20074;-66
2021/09/06 07:24:18;;;;;;;13.88;12.23;;;19.50;99.90;;;;;;5096023;28;20036;-66
2021/09/06 07:26:43;;;;;;;15.30;12.25;;;19.60;99.90;;;;;;5094757;28;20103;-66
2021/09/06 07:29:09;;;;;;;15.57;13.23;;;19.60;99.90;;;;;;5094496;28;20035;-66
2021/09/06 07:31:34;;;;;;;19.10;14.35;;;19.40;99.90;;;;;;5094815;28;20905;-66
2021/09/06 07:34:00;;;;;;;17.48;12.77;;;19.40;99.90;;;;;;5096650;28;20629;-67
2021/09/06 07:36:25;;;;;;;18.77;12.88;;;19.40;99.90;;;;;;5093207;28;20035;-69
2021/09/06 07:38:51;;;;;;;15.55;12.13;;;19.50;99.90;;;;;;5096142;28;20066;-69
2021/09/06 07:41:17;;;;;;;14.45;11.90;;;19.30;99.90;;;;;;5090575;28;20093;-69
2021/09/06 07:43:44;;;;;;;16.48;12.02;;;19.30;99.90;;;;;;5125872;27;20484;-70
2021/09/06 07:46:10;;;;;;;17.00;12.57;;;19.30;99.90;;;;;;5095168;28;20062;-69
2021/09/06 07:48:35;;;;;;;17.25;13.13;;;19.20;99.90;;;;;;5097193;28;20470;-69
2021/09/06 07:51:01;;;;;;;16.50;13.20;;;19.20;99.90;;;;;;5126585;27;20471;-69
2021/09/06 07:53:26;;;;;;;17.40;12.35;;;19.20;99.90;;;;;;5100735;28;20540;-70
2021/09/06 07:55:52;;;;;;;15.98;12.00;;;19.00;99.90;;;;;;5097607;28;20505;-70
2021/09/06 07:58:18;;;;;;;19.15;13.05;;;19.00;99.90;;;;;;5097372;28;20415;-70
2021/09/06 08:00:44;;;;;;;14.25;12.60;;;18.90;99.90;;;;;;5095616;28;20131;-70
2021/09/06 08:03:09;;;;;;;16.10;11.90;;;18.80;99.90;;;;;;5096379;27;20085;-70
2021/09/06 08:05:35;;;;;;;16.67;13.15;;;18.90;99.90;;;;;;5097572;28;20040;-68
2021/09/06 08:08:00;;;;;;;14.85;13.07;;;18.90;99.90;;;;;;5094313;28;20040;-70
2021/09/06 08:10:26;;;;;;;16.83;12.70;;;18.90;99.90;;;;;;5095630;28;20721;-70
2021/09/06 08:12:52;;;;;;;18.10;12.65;;;19.10;99.90;;;;;;5096603;28;20043;-70
2021/09/06 08:15:17;;;;;;;13.52;11.30;;;19.20;99.90;;;;;;5096155;28;20050;-70
2021/09/06 08:17:43;;;;;;;16.85;13.40;;;19.30;99.90;;;;;;5095959;28;20035;-71
2021/09/06 08:20:14;;;;;;;18.23;12.88;;;19.30;99.90;;;;;;5095940;28;20034;-69
2021/09/06 08:22:49;;;;;;;14.45;12.90;;;19.30;99.90;;;;;;5094196;28;20046;-72
2021/09/06 08:25:15;;;;;;;18.65;13.65;;;19.40;99.90;;;;;;5097887;28;20126;-71
2021/09/06 08:27:42;;;;;;;17.38;12.88;;;19.50;99.90;;;;;;5098681;27;20035;-75
2021/09/06 08:30:09;;;;;;;18.45;12.40;;;19.60;99.90;;;;;;5128756;27;20518;-72
2021/09/06 08:32:35;;;;;;;16.45;12.43;;;19.70;99.90;;;;;;5096593;27;20040;-73
2021/09/06 08:35:01;;;;;;;13.15;11.75;;;19.90;99.90;;;;;;5098585;27;20075;-73
2021/09/06 08:37:27;;;;;;;13.70;12.00;;;20.10;99.90;;;;;;5096246;28;20032;-73
2021/09/06 08:39:53;;;;;;;13.55;11.40;;;20.20;99.90;;;;;;5125715;27;20047;-73
2021/09/06 08:42:19;;;;;;;13.98;10.27;;;20.50;99.90;;;;;;5130076;27;20044;-75
2021/09/06 08:44:45;;;;;;;11.75;10.55;;;20.50;99.90;;;;;;5097999;28;20047;-74
2021/09/06 08:47:13;;;;;;;15.40;11.38;;;20.60;99.90;;;;;;5094002;28;20047;-73
2021/09/06 08:49:39;;;;;;;14.90;10.93;;;20.80;99.90;;;;;;5096824;27;20355;-74
2021/09/06 08:52:04;;;;;;;11.45;10.25;;;20.80;99.90;;;;;;5096171;28;20050;-73
2021/09/06 08:54:30;;;;;;;13.40;9.57;;;20.90;99.90;;;;;;5096869;28;20043;-72
2021/09/06 08:56:56;;;;;;;11.27;10.10;;;21.00;99.90;;;;;;5096138;28;20059;-71
2021/09/06 08:59:21;;;;;;;10.52;9.43;;;21.10;99.90;;;;;;5092887;28;20160;-70
2021/09/06 09:01:50;;;;;;;19.25;11.93;;;21.20;99.90;;;;;;5095034;28;20466;-73
2021/09/06 09:04:20;;;;;;;15.40;9.57;;;21.20;99.90;;;;;;5096735;27;20367;-73
2021/09/06 09:06:52;;;;;;;13.52;9.27;;;21.20;99.90;;;;;;5093472;28;20166;-73
2021/09/06 09:09:36;;;;;;;11.70;9.73;;;21.30;99.90;;;;;;5103891;28;20044;-73
2021/09/06 09:12:16;;;;;;;12.38;10.00;;;21.30;99.90;;;;;;5097209;28;20040;-73
2021/09/06 09:14:49;;;;;;;10.75;9.60;;;21.40;99.90;;;;;;5094065;28;20118;-73
2021/09/06 09:17:15;;;;;;;14.82;10.32;;;21.60;99.90;;;;;;5096047;28;20097;-73
2021/09/06 09:19:41;;;;;;;16.23;10.02;;;21.70;99.90;;;;;;5096381;28;20040;-73
2021/09/06 09:22:10;;;;;;;10.82;9.70;;;21.90;99.90;;;;;;5094027;28;20047;-73
2021/09/06 09:24:38;;;;;;;12.63;10.32;;;22.00;99.90;;;;;;5092008;28;20513;-73
2021/09/06 09:27:07;;;;;;;12.05;10.70;;;22.10;99.90;;;;;;5093801;28;20048;-73
2021/09/06 09:29:34;;;;;;;13.55;10.73;;;22.20;99.90;;;;;;5092614;27;20039;-73
2021/09/06 09:32:06;;;;;;;11.73;10.18;;;22.40;99.90;;;;;;5097809;28;20529;-73
2021/09/06 09:34:37;;;;;;;11.88;10.18;;;22.50;99.90;;;;;;5098494;27;20085;-73
2021/09/06 09:37:02;;;;;;;11.05;9.90;;;22.70;99.90;;;;;;5097381;28;20139;-71
2021/09/06 09:39:31;;;;;;;14.88;10.05;;;22.70;99.90;;;;;;5094604;28;20134;-72
2021/09/06 09:42:10;;;;;;;12.93;10.25;;;22.60;99.70;;;;;;5091728;28;20077;-72
2021/09/06 09:44:45;;;;;;;12.82;9.77;;;22.80;99.50;;;;;;5130474;27;20046;-72
2021/09/06 09:47:10;;;;;;;13.27;9.48;;;22.60;99.80;;;;;;5093689;28;20040;-72
2021/09/06 09:49:37;;;;;;;13.13;9.20;;;22.60;99.90;;;;;;5093796;28;20042;-72
2021/09/06 09:52:05;;;;;;;11.80;8.38;;;22.60;99.00;;;;;;5090992;28;20040;-73
2021/09/06 09:54:31;;;;;;;14.27;9.38;;;22.50;98.50;;;;;;5097537;28;20080;-73
2021/09/06 09:56:56;;;;;;;12.73;8.57;;;22.70;99.90;;;;;;5093381;28;20183;-72
2021/09/06 09:59:22;;;;;;;11.20;7.80;;;22.90;99.30;;;;;;5095003;28;20042;-72
2021/09/06 10:01:59;;;;;;;10.85;8.90;;;23.00;98.10;;;;;;5093442;28;20085;-74
2021/09/06 10:04:28;;;;;;;9.60;8.38;;;23.20;99.20;;;;;;5126829;27;20039;-74
2021/09/06 10:06:56;;;;;;;13.48;8.00;;;23.40;98.20;;;;;;5095654;28;20630;-74
2021/09/06 10:09:22;;;;;;;11.20;8.40;;;23.20;97.40;;;;;;5093990;28;20042;-73
2021/09/06 10:11:48;;;;;;;9.80;8.80;;;23.00;96.70;;;;;;5091345;28;20385;-73
2021/09/06 10:14:27;;;;;;;8.55;7.60;;;22.90;96.60;;;;;;5096325;27;20039;-74
2021/09/06 10:17:06;;;;;;;10.02;7.97;;;22.80;95.80;;;;;;5095720;28;20039;-72
2021/09/06 10:19:49;;;;;;;9.77;8.25;;;22.80;95.30;;;;;;5093293;28;20473;-74
2021/09/06 10:22:26;;;;;;;10.18;8.70;;;22.90;94.90;;;;;;5093427;28;20119;-74
2021/09/06 10:25:03;;;;;;;17.23;7.80;;;23.00;98.00;;;;;;5097877;28;20134;-73
2021/09/06 10:27:30;;;;;;;8.98;7.53;;;22.90;96.10;;;;;;5099771;28;20044;-73
2021/09/06 10:30:07;;;;;;;13.80;7.95;;;22.90;96.30;;;;;;5092242;28;20047;-73
2021/09/06 10:32:37;;;;;;;10.77;7.78;;;23.00;95.40;;;;;;5095284;28;20032;-73
2021/09/06 10:35:06;;;;;;;9.52;7.57;;;23.20;97.60;;;;;;5094350;28;20047;-73
2021/09/06 10:37:35;;;;;;;10.40;7.30;;;23.50;97.80;;;;;;5092747;28;20028;-74
2021/09/06 10:40:02;;;;;;;9.48;8.43;;;23.60;97.50;;;;;;5092595;28;20048;-73
2021/09/06 10:42:37;;;;;;;8.77;7.35;;;23.70;93.40;;;;;;5126192;27;20043;-72
2021/09/06 10:45:06;;;;;;;9.75;7.20;;;23.80;84.20;;;;;;5093365;28;20096;-73
2021/09/06 10:47:39;;;;;;;7.68;6.97;;;23.70;90.90;;;;;;5093348;28;20081;-73
2021/09/06 10:50:21;;;;;;;7.78;6.72;;;23.70;87.40;;;;;;5092648;28;20040;-74
2021/09/06 10:52:49;;;;;;;7.72;7.03;;;23.60;90.50;;;;;;5095590;28;20126;-73
2021/09/06 10:55:16;;;;;;;6.90;6.07;;;23.50;90.80;;;;;;5095658;28;20036;-73
2021/09/06 10:57:43;;;;;;;7.53;5.95;;;23.30;87.80;;;;;;5094747;28;20505;-73
2021/09/06 11:00:17;;;;;;;6.80;5.93;;;23.40;84.00;;;;;;5097257;28;20397;-73
2021/09/06 11:02:43;;;;;;;9.65;6.28;;;23.20;83.10;;;;;;5093938;28;20031;-73
2021/09/06 11:05:17;;;;;;;9.45;6.03;;;23.00;86.60;;;;;;5122557;27;20043;-72
2021/09/06 11:07:43;;;;;;;5.63;5.10;;;22.70;81.90;;;;;;5092032;28;20035;-72
2021/09/06 11:10:11;;;;;;;7.15;5.13;;;22.70;90.30;;;;;;5095323;28;20036;-72
2021/09/06 11:12:39;;;;;;;6.07;5.03;;;22.80;92.00;;;;;;5092837;28;20100;-71
2021/09/06 11:15:06;;;;;;;6.93;5.45;;;22.80;88.70;;;;;;5094445;28;20047;-71
2021/09/06 11:17:31;;;;;;;7.25;6.55;;;22.80;89.60;;;;;;5093701;28;20062;-71
2021/09/06 11:19:58;;;;;;;9.55;5.95;;;22.70;89.60;;;;;;5094329;28;20495;-71
2021/09/06 11:22:27;;;;;;;8.35;5.88;;;22.60;92.70;;;;;;5092619;28;20405;-71
2021/09/06 11:25:01;;;;;;;8.55;5.72;;;22.50;96.30;;;;;;5128650;27;20462;-71
2021/09/06 11:27:32;;;;;;;7.47;5.35;;;22.60;95.90;;;;;;5095842;28;20036;-71
2021/09/06 11:29:59;;;;;;;8.68;6.38;;;22.80;92.90;;;;;;5094384;27;20048;-70
2021/09/06 11:32:25;;;;;;;6.03;5.43;;;22.80;90.90;;;;;;5097219;28;20039;-71
2021/09/06 11:35:11;;;;;;;8.88;5.60;;;23.00;92.70;;;;;;5098655;28;20068;-71
2021/09/06 11:37:36;;;;;;;9.63;5.55;;;23.00;85.60;;;;;;5098978;27;20162;-71
2021/09/06 11:40:04;;;;;;;6.25;5.20;;;22.90;89.40;;;;;;5099383;28;20118;-71
2021/09/06 11:42:30;;;;;;;9.10;5.70;;;22.80;90.50;;;;;;5105971;28;20043;-70
2021/09/06 11:44:57;;;;;;;11.00;5.80;;;22.90;87.70;;;;;;5133395;27;20942;-71
2021/09/06 11:47:23;;;;;;;6.68;5.93;;;23.00;89.70;;;;;;5107329;28;20035;-71
2021/09/06 11:49:59;;;;;;;6.50;5.80;;;23.10;87.00;;;;;;5109307;27;20397;-71
2021/09/06 11:52:30;;;;;;;8.85;5.60;;;23.00;92.30;;;;;;5134437;27;20470;-71
2021/09/06 11:54:56;;;;;;;5.38;4.75;;;22.90;94.00;;;;;;5105504;28;20437;-71
2021/09/06 11:57:26;;;;;;;8.77;5.63;;;22.90;90.60;;;;;;5104480;28;20075;-71
2021/09/06 11:59:54;;;;;;;9.95;5.57;;;22.80;91.50;;;;;;5104231;28;20035;-71
2021/09/06 12:02:23;;;;;;;5.70;5.10;;;22.70;91.80;;;;;;5102645;28;20040;-71
2021/09/06 12:04:49;;;;;;;6.82;5.75;;;22.50;94.60;;;;;;5101207;28;20124;-70
2021/09/06 12:07:19;;;;;;;6.13;4.68;;;22.40;96.30;;;;;;5105351;28;20043;-70
2021/09/06 12:09:48;;;;;;;5.97;5.38;;;22.40;93.70;;;;;;5132494;27;20075;-71
2021/09/06 12:12:25;;;;;;;6.55;5.93;;;22.30;97.90;;;;;;5139281;27;20428;-71
2021/09/06 12:14:52;;;;;;;8.38;5.70;;;22.30;94.90;;;;;;5105411;27;20457;-70
2021/09/06 12:17:18;;;;;;;10.23;5.82;;;22.30;95.20;;;;;;5101507;28;20448;-71
2021/09/06 12:19:49;;;;;;;7.88;5.80;;;22.40;94.50;;;;;;5102070;28;20504;-70
2021/09/06 12:22:21;;;;;;;7.38;5.80;;;22.60;93.30;;;;;;5099882;28;20474;-70
2021/09/06 12:24:48;;;;;;;11.77;5.97;;;22.70;91.60;;;;;;5103979;28;20032;-70
2021/09/06 12:27:16;;;;;;;7.22;6.53;;;22.70;93.30;;;;;;5100436;28;20072;-70
2021/09/06 12:29:43;;;;;;;6.85;6.05;;;22.70;88.60;;;;;;5103497;27;20042;-70
2021/09/06 12:32:19;;;;;;;12.13;7.07;;;22.70;87.60;;;;;;5101196;28;20028;-70
2021/09/06 12:34:44;;;;;;;8.02;6.65;;;22.60;85.30;;;;;;5099680;28;20036;-70
2021/09/06 12:37:14;;;;;;;9.02;6.30;;;22.70;90.70;;;;;;5101688;27;20032;-71
2021/09/06 12:39:40;;;;;;;8.80;6.07;;;22.70;90.00;;;;;;5099013;28;20493;-71
2021/09/06 12:42:06;;;;;;;7.13;6.03;;;22.80;91.10;;;;;;5097302;28;20040;-72